createdAt,value
2022-08-31T00:00:11.119Z,12.69
2022-08-31T00:03:16.498Z,12.68
2022-08-31T00:05:43.638Z,12.68
2022-08-31T00:08:10.486Z,12.68
2022-08-31T00:10:42.827Z,12.70
2022-08-31T00:13:13.072Z,12.72
2022-08-31T00:15:40.104Z,12.72
2022-08-31T00:18:06.966Z,12.76
2022-08-31T00:20:35.076Z,12.80
2022-08-31T00:23:07.242Z,12.83
2022-08-31T00:25:35.265Z,12.86
2022-08-31T00:28:03.919Z,12.93
2022-08-31T00:30:32.163Z,12.98
2022-08-31T00:32:59.650Z,13.02
2022-08-31T00:35:29.039Z,13.07
2022-08-31T00:37:56.202Z,13.09
2022-08-31T00:40:23.592Z,13.06
2022-08-31T00:42:50.748Z,13.05
2022-08-31T00:45:17.579Z,13.06
2022-08-31T00:47:44.482Z,13.04
2022-08-31T00:50:15.057Z,13.01
2022-08-31T00:52:46.540Z,13.00
2022-08-31T00:55:21.510Z,12.96
2022-08-31T00:57:51.661Z,12.95
2022-08-31T01:00:24.998Z,12.92
2022-08-31T01:02:52.205Z,12.89
2022-08-31T01:05:19.719Z,12.89
2022-08-31T01:07:50.915Z,12.94
2022-08-31T01:10:20.689Z,12.97
2022-08-31T01:12:50.872Z,12.94
2022-08-31T01:15:18.579Z,12.94
2022-08-31T01:17:48.383Z,12.91
2022-08-31T01:20:48.977Z,12.87
2022-08-31T01:23:25.095Z,12.87
2022-08-31T01:25:55.439Z,12.86
2022-08-31T01:28:22.925Z,12.83
2022-08-31T01:31:07.137Z,12.77
2022-08-31T01:33:37.383Z,12.75
2022-08-31T01:36:06.727Z,12.69
2022-08-31T01:38:35.759Z,12.63
2022-08-31T01:41:03.744Z,12.56
2022-08-31T01:43:34.064Z,12.45
2022-08-31T01:46:10.442Z,12.31
2022-08-31T01:48:41.338Z,12.23
2022-08-31T01:51:12.327Z,12.18
2022-08-31T01:53:42.153Z,12.13
2022-08-31T01:56:19.678Z,12.05
2022-08-31T01:58:46.705Z,11.99
2022-08-31T02:01:26.312Z,11.93
2022-08-31T02:04:02.873Z,11.87
2022-08-31T02:06:30.486Z,11.80
2022-08-31T02:08:57.373Z,11.72
2022-08-31T02:11:24.320Z,11.69
2022-08-31T02:13:51.161Z,11.63
2022-08-31T02:16:18.089Z,11.56
2022-08-31T02:18:45.259Z,11.53
2022-08-31T02:21:13.634Z,11.47
2022-08-31T02:23:41.509Z,11.44
2022-08-31T02:26:09.507Z,11.40
2022-08-31T02:28:36.833Z,11.34
2022-08-31T02:31:04.635Z,11.30
2022-08-31T02:33:31.819Z,11.27
2022-08-31T02:35:58.800Z,11.25
2022-08-31T02:38:25.695Z,11.21
2022-08-31T02:40:54.386Z,11.16
2022-08-31T02:43:24.963Z,11.11
2022-08-31T02:45:53.543Z,11.03
2022-08-31T02:48:21.465Z,11.00
2022-08-31T02:50:51.281Z,10.96
2022-08-31T02:53:21.006Z,10.91
2022-08-31T02:55:48.943Z,10.84
2022-08-31T02:58:19.549Z,10.80
2022-08-31T03:00:49.089Z,10.79
2022-08-31T03:03:16.673Z,10.74
2022-08-31T03:05:43.580Z,10.72
2022-08-31T03:08:10.715Z,10.69
2022-08-31T03:10:37.533Z,10.63
2022-08-31T03:13:04.419Z,10.58
2022-08-31T03:15:31.675Z,10.55
2022-08-31T03:17:58.566Z,10.53
2022-08-31T03:20:27.256Z,10.51
2022-08-31T03:22:54.782Z,10.45
2022-08-31T03:25:22.885Z,10.43
2022-08-31T03:27:50.392Z,10.40
2022-08-31T03:30:21.639Z,10.40
2022-08-31T03:32:49.096Z,10.43
2022-08-31T03:35:18.418Z,10.50
2022-08-31T03:37:46.119Z,10.55
2022-08-31T03:40:13.375Z,10.61
2022-08-31T03:42:41.113Z,10.68
2022-08-31T03:45:08.995Z,10.73
2022-08-31T03:47:37.116Z,10.77
2022-08-31T03:50:12.577Z,10.77
2022-08-31T03:52:39.715Z,10.80
2022-08-31T03:55:07.239Z,10.81
2022-08-31T03:57:34.933Z,10.85
2022-08-31T04:00:02.305Z,10.88
2022-08-31T04:02:31.102Z,10.96
2022-08-31T04:05:01.212Z,11.09
2022-08-31T04:07:28.075Z,11.16
2022-08-31T04:09:56.082Z,11.27
2022-08-31T04:12:23.131Z,11.38
2022-08-31T04:14:49.946Z,11.53
2022-08-31T04:17:16.807Z,11.65
2022-08-31T04:19:43.925Z,11.83
2022-08-31T04:22:10.734Z,12.05
2022-08-31T04:24:37.550Z,12.34
2022-08-31T04:27:05.014Z,12.64
2022-08-31T04:29:32.051Z,12.86
2022-08-31T04:31:58.906Z,13.12
2022-08-31T04:34:26.442Z,13.27
2022-08-31T04:36:53.270Z,13.35
2022-08-31T04:39:21.115Z,13.42
2022-08-31T04:41:51.363Z,13.48
2022-08-31T04:44:20.225Z,13.42
2022-08-31T04:46:47.451Z,13.31
2022-08-31T04:49:15.247Z,13.21
2022-08-31T04:51:44.499Z,13.29
2022-08-31T04:54:13.988Z,13.52
2022-08-31T04:56:44.408Z,13.67
2022-08-31T04:59:14.318Z,13.67
2022-08-31T05:01:43.737Z,13.66
2022-08-31T05:04:13.823Z,13.60
2022-08-31T05:06:42.781Z,13.55
2022-08-31T05:09:16.727Z,13.57
2022-08-31T05:11:44.787Z,13.62
2022-08-31T05:14:11.605Z,13.70
2022-08-31T05:16:40.684Z,13.88
2022-08-31T05:19:08.586Z,14.07
2022-08-31T05:21:38.081Z,14.20
2022-08-31T05:24:09.459Z,14.27
2022-08-31T05:26:42.287Z,14.37
2022-08-31T05:29:10.282Z,14.44
2022-08-31T05:31:38.062Z,14.53
2022-08-31T05:34:05.875Z,14.64
2022-08-31T05:36:34.084Z,14.73
2022-08-31T05:39:02.292Z,14.76
2022-08-31T05:41:30.599Z,14.84
2022-08-31T05:43:57.938Z,14.96
2022-08-31T05:46:25.001Z,15.11
2022-08-31T05:48:51.935Z,15.33
2022-08-31T05:51:19.361Z,15.51
2022-08-31T05:53:47.612Z,15.70
2022-08-31T05:56:19.254Z,15.88
2022-08-31T05:58:47.516Z,16.08
2022-08-31T06:01:25.374Z,16.26
2022-08-31T06:03:54.347Z,16.48
2022-08-31T06:06:21.409Z,16.68
2022-08-31T06:08:51.955Z,16.86
2022-08-31T06:11:21.918Z,17.00
2022-08-31T06:13:52.382Z,17.09
2022-08-31T06:16:20.620Z,17.18
2022-08-31T06:18:50.945Z,17.29
2022-08-31T06:21:21.196Z,17.35
2022-08-31T06:23:50.098Z,17.38
2022-08-31T06:26:19.030Z,17.38
2022-08-31T06:28:49.158Z,17.38
2022-08-31T06:31:26.896Z,17.44
2022-08-31T06:33:55.892Z,17.63
2022-08-31T06:36:26.303Z,17.85
2022-08-31T06:38:56.553Z,18.07
2022-08-31T06:41:27.173Z,18.31
2022-08-31T06:43:54.686Z,18.51
2022-08-31T06:46:23.861Z,18.67
2022-08-31T06:48:55.016Z,18.74
2022-08-31T06:51:22.631Z,18.83
2022-08-31T06:53:49.602Z,18.88
2022-08-31T06:56:20.429Z,18.86
2022-08-31T06:58:54.131Z,18.91
2022-08-31T07:01:36.001Z,19.03
2022-08-31T07:04:09.043Z,19.42
2022-08-31T07:06:39.109Z,20.20
2022-08-31T07:09:09.591Z,20.60
2022-08-31T07:11:37.494Z,20.89
2022-08-31T07:14:09.131Z,21.03
2022-08-31T07:16:36.173Z,20.95
2022-08-31T07:19:04.097Z,20.96
2022-08-31T07:21:39.156Z,20.99
2022-08-31T07:24:06.878Z,20.93
2022-08-31T07:26:45.206Z,20.83
2022-08-31T07:29:15.056Z,20.72
2022-08-31T07:31:48.858Z,20.53
2022-08-31T07:34:21.094Z,20.26
2022-08-31T07:37:06.936Z,20.08
2022-08-31T07:39:52.453Z,19.92
2022-08-31T07:42:26.973Z,19.78
2022-08-31T07:44:54.637Z,19.57
2022-08-31T07:47:22.961Z,19.35
2022-08-31T07:49:52.744Z,19.16
2022-08-31T07:52:24.091Z,19.07
2022-08-31T07:54:53.225Z,19.06
2022-08-31T07:57:22.061Z,19.11
2022-08-31T07:59:54.730Z,19.32
2022-08-31T08:02:23.654Z,19.50
2022-08-31T08:04:51.064Z,19.54
2022-08-31T08:07:18.499Z,19.57
2022-08-31T08:09:48.509Z,19.59
2022-08-31T08:12:15.316Z,19.56
2022-08-31T08:14:42.192Z,19.49
2022-08-31T08:17:09.303Z,19.40
2022-08-31T08:19:36.180Z,19.34
2022-08-31T08:22:04.208Z,19.31
2022-08-31T08:24:31.789Z,19.30
2022-08-31T08:26:59.281Z,19.29
2022-08-31T08:29:27.296Z,19.26
2022-08-31T08:31:56.262Z,19.30
2022-08-31T08:34:31.569Z,19.30
2022-08-31T08:37:00.354Z,19.22
2022-08-31T08:39:27.778Z,19.22
2022-08-31T08:41:57.070Z,19.23
2022-08-31T08:44:28.320Z,19.28
2022-08-31T08:46:59.124Z,19.36
2022-08-31T08:49:29.041Z,19.40
2022-08-31T08:51:59.181Z,19.44
2022-08-31T08:54:35.737Z,19.48
2022-08-31T08:57:10.025Z,19.49
2022-08-31T08:59:37.172Z,19.52
2022-08-31T09:02:06.916Z,19.57
2022-08-31T09:04:52.518Z,19.63
2022-08-31T09:07:31.624Z,19.68
2022-08-31T09:10:13.044Z,19.73
2022-08-31T09:12:47.324Z,19.88
2022-08-31T09:15:57.491Z,19.99
2022-08-31T09:18:56.598Z,20.13
2022-08-31T09:21:33.701Z,20.12
2022-08-31T09:24:07.880Z,20.31
2022-08-31T09:27:18.451Z,20.41
2022-08-31T09:29:54.595Z,20.56
2022-08-31T09:32:32.131Z,20.71
2022-08-31T09:35:05.254Z,20.89
2022-08-31T09:37:38.219Z,21.08
2022-08-31T09:40:23.368Z,21.31
2022-08-31T09:43:05.951Z,21.51
2022-08-31T09:45:41.392Z,21.68
2022-08-31T09:48:09.406Z,21.75
2022-08-31T09:50:47.502Z,21.85
2022-08-31T09:54:00.743Z,22.02
2022-08-31T09:56:28.468Z,22.31
2022-08-31T09:59:05.055Z,22.52
2022-08-31T10:01:45.227Z,22.57
2022-08-31T10:04:27.947Z,22.68
2022-08-31T10:07:19.474Z,22.89
2022-08-31T10:09:57.935Z,23.09
2022-08-31T10:12:49.587Z,23.32
2022-08-31T10:15:32.083Z,23.59
2022-08-31T10:18:13.906Z,23.78
2022-08-31T10:20:48.478Z,23.98
2022-08-31T10:23:25.317Z,24.17
2022-08-31T10:25:59.013Z,24.40
2022-08-31T10:28:32.173Z,24.73
2022-08-31T10:31:21.357Z,25.04
2022-08-31T10:34:30.279Z,25.51
2022-08-31T10:37:03.903Z,25.97
2022-08-31T10:39:42.918Z,26.80
2022-08-31T10:42:21.716Z,27.76
2022-08-31T10:44:56.898Z,28.50
2022-08-31T10:47:33.613Z,28.59
2022-08-31T10:50:03.723Z,28.96
2022-08-31T10:52:38.648Z,29.31
2022-08-31T10:55:18.227Z,29.35
2022-08-31T10:58:12.610Z,29.05
2022-08-31T11:01:04.867Z,28.38
2022-08-31T11:04:20.028Z,27.63
2022-08-31T11:07:14.935Z,27.49
2022-08-31T11:09:56.604Z,27.37
2022-08-31T11:12:28.346Z,27.24
2022-08-31T11:15:28.919Z,27.12
2022-08-31T11:17:55.999Z,26.85
2022-08-31T11:20:55.056Z,26.42
2022-08-31T11:23:30.140Z,26.18
2022-08-31T11:26:41.245Z,26.12
2022-08-31T11:29:28.907Z,26.26
2022-08-31T11:32:03.932Z,26.46
2022-08-31T11:34:47.115Z,26.80
2022-08-31T11:37:56.100Z,27.47
2022-08-31T11:40:59.922Z,27.93
2022-08-31T11:43:32.441Z,28.22
2022-08-31T11:46:27.866Z,27.98
2022-08-31T11:48:55.177Z,27.91
2022-08-31T11:51:40.665Z,27.44
2022-08-31T11:54:14.271Z,27.20
2022-08-31T11:56:47.523Z,27.16
2022-08-31T11:59:38.266Z,27.36
2022-08-31T12:02:20.568Z,28.39
2022-08-31T12:04:52.309Z,29.50
2022-08-31T12:07:43.652Z,30.31
2022-08-31T12:10:28.896Z,31.10
2022-08-31T12:13:09.442Z,31.22
2022-08-31T12:15:36.319Z,31.40
2022-08-31T12:18:35.236Z,31.67
2022-08-31T12:21:52.733Z,31.61
2022-08-31T12:24:49.089Z,31.36
2022-08-31T12:27:41.068Z,30.52
2022-08-31T12:30:19.327Z,30.01
2022-08-31T12:32:57.699Z,29.31
2022-08-31T12:35:27.358Z,28.56
2022-08-31T12:38:01.832Z,28.09
2022-08-31T12:40:33.781Z,27.73
2022-08-31T12:43:03.016Z,27.39
2022-08-31T12:46:00.318Z,26.84
2022-08-31T12:48:49.154Z,26.60
2022-08-31T12:51:45.175Z,27.12
2022-08-31T12:54:38.347Z,27.82
2022-08-31T12:57:55.667Z,28.27
2022-08-31T13:00:39.416Z,28.61
2022-08-31T13:03:18.323Z,28.34
2022-08-31T13:06:08.006Z,28.08
2022-08-31T13:08:45.562Z,27.95
2022-08-31T13:11:13.584Z,27.90
2022-08-31T13:13:40.681Z,27.64
2022-08-31T13:16:08.504Z,27.33
2022-08-31T13:18:36.580Z,26.92
2022-08-31T13:21:05.943Z,26.75
2022-08-31T13:23:40.923Z,26.72
2022-08-31T13:26:20.714Z,26.67
2022-08-31T13:28:51.024Z,26.60
2022-08-31T13:31:32.029Z,26.45
2022-08-31T13:34:07.727Z,26.52
2022-08-31T13:36:51.759Z,26.71
2022-08-31T13:39:30.101Z,26.90
2022-08-31T13:42:12.613Z,27.15
2022-08-31T13:44:44.203Z,27.46
2022-08-31T13:47:22.055Z,27.76
2022-08-31T13:49:53.295Z,27.95
2022-08-31T13:52:26.474Z,27.86
2022-08-31T13:55:08.164Z,27.66
2022-08-31T13:57:38.569Z,27.53
2022-08-31T14:00:34.499Z,27.14
2022-08-31T14:03:32.087Z,26.84
2022-08-31T14:06:24.064Z,26.63
2022-08-31T14:09:17.285Z,26.42
2022-08-31T14:11:53.555Z,26.37
2022-08-31T14:14:29.977Z,26.31
2022-08-31T14:17:01.395Z,26.21
2022-08-31T14:19:33.556Z,25.95
2022-08-31T14:22:16.634Z,25.69
2022-08-31T14:24:44.157Z,25.51
2022-08-31T14:27:13.546Z,25.31
2022-08-31T14:29:42.095Z,25.12
2022-08-31T14:32:09.150Z,24.92
2022-08-31T14:34:36.785Z,24.77
2022-08-31T14:37:19.798Z,24.64
2022-08-31T14:39:53.761Z,24.48
2022-08-31T14:42:25.713Z,24.33
2022-08-31T14:45:03.141Z,24.17
2022-08-31T14:47:34.332Z,23.98
2022-08-31T14:50:05.816Z,23.81
2022-08-31T14:52:38.547Z,23.69
2022-08-31T14:55:09.168Z,23.54
2022-08-31T14:57:38.455Z,23.44
2022-08-31T15:00:06.801Z,23.36
2022-08-31T15:02:34.871Z,23.26
2022-08-31T15:05:09.471Z,23.17
2022-08-31T15:07:39.314Z,23.11
2022-08-31T15:10:08.419Z,23.06
2022-08-31T15:12:35.868Z,23.05
2022-08-31T15:15:03.253Z,23.03
2022-08-31T15:17:33.914Z,22.96
2022-08-31T15:20:03.684Z,22.88
2022-08-31T15:22:31.403Z,22.79
2022-08-31T15:24:58.335Z,22.71
2022-08-31T15:27:29.021Z,22.65
2022-08-31T15:30:01.396Z,22.54
2022-08-31T15:32:28.258Z,22.43
2022-08-31T15:34:58.224Z,22.30
2022-08-31T15:37:31.957Z,22.21
2022-08-31T15:40:02.079Z,22.18
2022-08-31T15:42:36.751Z,22.09
2022-08-31T15:45:04.590Z,21.96
2022-08-31T15:47:53.823Z,21.91
2022-08-31T15:50:31.764Z,21.84
2022-08-31T15:53:08.992Z,21.75
2022-08-31T15:55:40.680Z,21.67
2022-08-31T15:58:09.605Z,21.58
2022-08-31T16:00:37.462Z,21.45
2022-08-31T16:03:06.147Z,21.37
2022-08-31T16:05:35.804Z,21.24
2022-08-31T16:08:03.282Z,21.18
2022-08-31T16:10:30.870Z,21.13
2022-08-31T16:12:58.047Z,21.08
2022-08-31T16:15:25.792Z,21.00
2022-08-31T16:17:57.257Z,20.89
2022-08-31T16:20:27.451Z,20.76
2022-08-31T16:22:55.536Z,20.64
2022-08-31T16:25:22.452Z,20.52
2022-08-31T16:27:49.899Z,20.40
2022-08-31T16:30:16.744Z,20.28
2022-08-31T16:32:45.727Z,20.17
2022-08-31T16:35:14.278Z,20.07
2022-08-31T16:37:41.064Z,20.00
2022-08-31T16:40:08.913Z,19.95
2022-08-31T16:42:36.043Z,19.89
2022-08-31T16:45:03.103Z,19.84
2022-08-31T16:47:29.970Z,19.77
2022-08-31T16:49:59.985Z,19.72
2022-08-31T16:52:27.454Z,19.68
2022-08-31T16:54:57.385Z,19.65
2022-08-31T16:57:28.374Z,19.63
2022-08-31T16:59:57.063Z,19.58
2022-08-31T17:02:24.805Z,19.51
2022-08-31T17:04:53.952Z,19.47
2022-08-31T17:07:23.512Z,19.41
2022-08-31T17:09:50.996Z,19.37
2022-08-31T17:12:21.642Z,19.33
2022-08-31T17:14:52.532Z,19.29
2022-08-31T17:17:22.923Z,19.22
2022-08-31T17:19:50.141Z,19.17
2022-08-31T17:22:24.362Z,19.09
2022-08-31T17:24:56.418Z,19.04
2022-08-31T17:27:24.887Z,18.97
2022-08-31T17:29:53.981Z,18.92
2022-08-31T17:32:24.953Z,18.86
2022-08-31T17:34:54.466Z,18.82
2022-08-31T17:37:32.872Z,18.77
2022-08-31T17:40:00.472Z,18.73
2022-08-31T17:42:28.259Z,18.69
2022-08-31T17:44:56.698Z,18.63
2022-08-31T17:47:25.645Z,18.54
2022-08-31T17:49:53.698Z,18.47
2022-08-31T17:52:21.809Z,18.39
2022-08-31T17:54:51.314Z,18.28
2022-08-31T17:57:22.313Z,18.17
2022-08-31T17:59:49.578Z,18.08
2022-08-31T18:02:21.214Z,17.97
2022-08-31T18:04:49.115Z,17.86
2022-08-31T18:07:16.087Z,17.76
2022-08-31T18:09:45.688Z,17.64
2022-08-31T18:12:13.723Z,17.42
2022-08-31T18:14:41.583Z,17.33
2022-08-31T18:17:12.657Z,17.19
2022-08-31T18:19:39.890Z,17.02
2022-08-31T18:22:07.060Z,16.87
2022-08-31T18:24:36.581Z,16.67
2022-08-31T18:27:07.193Z,16.46
2022-08-31T18:29:38.913Z,16.28
2022-08-31T18:32:07.320Z,16.11
2022-08-31T18:34:37.111Z,15.90
2022-08-31T18:37:04.810Z,15.69
2022-08-31T18:39:55.135Z,15.48
2022-08-31T18:42:45.485Z,15.30
2022-08-31T18:45:15.639Z,15.11
2022-08-31T18:47:42.969Z,15.01
2022-08-31T18:50:10.035Z,14.89
2022-08-31T18:52:40.453Z,14.79
2022-08-31T18:55:15.588Z,14.67
2022-08-31T18:57:48.874Z,14.58
2022-08-31T19:00:17.858Z,14.47
2022-08-31T19:02:45.167Z,14.37
2022-08-31T19:05:15.741Z,14.30
2022-08-31T19:07:42.715Z,14.22
2022-08-31T19:10:13.196Z,14.17
2022-08-31T19:12:42.788Z,14.08
2022-08-31T19:15:12.106Z,13.96
2022-08-31T19:17:41.814Z,13.87
2022-08-31T19:20:10.377Z,13.81
2022-08-31T19:22:38.072Z,13.79
2022-08-31T19:25:07.147Z,13.72
2022-08-31T19:27:35.344Z,13.66
2022-08-31T19:30:06.110Z,13.60
2022-08-31T19:32:33.711Z,13.58
2022-08-31T19:35:00.514Z,13.51
2022-08-31T19:37:27.762Z,13.52
2022-08-31T19:39:54.607Z,13.51
2022-08-31T19:42:39.736Z,13.50
2022-08-31T19:45:24.389Z,13.48
2022-08-31T19:47:51.603Z,13.40
2022-08-31T19:50:18.765Z,13.38
2022-08-31T19:52:46.067Z,13.33
2022-08-31T19:55:13.267Z,13.27
2022-08-31T19:57:43.542Z,13.18
2022-08-31T20:00:11.902Z,13.10
2022-08-31T20:02:40.317Z,13.01
2022-08-31T20:05:07.998Z,12.88
2022-08-31T20:07:35.875Z,12.80
2022-08-31T20:10:03.255Z,12.74
2022-08-31T20:12:30.307Z,12.64
2022-08-31T20:14:57.206Z,12.60
2022-08-31T20:17:24.281Z,12.50
2022-08-31T20:19:52.234Z,12.39
2022-08-31T20:22:21.379Z,12.33
2022-08-31T20:24:48.514Z,12.24
2022-08-31T20:27:18.372Z,12.17
2022-08-31T20:29:45.484Z,12.11
2022-08-31T20:32:12.346Z,11.98
2022-08-31T20:34:39.372Z,11.92
2022-08-31T20:37:07.599Z,11.89
2022-08-31T20:39:35.565Z,11.84
2022-08-31T20:42:03.658Z,11.80
2022-08-31T20:44:34.903Z,11.71
2022-08-31T20:47:27.182Z,11.58
2022-08-31T20:49:59.846Z,11.49
2022-08-31T20:52:32.480Z,11.44
2022-08-31T20:55:02.487Z,11.44
2022-08-31T20:57:34.227Z,11.39
2022-08-31T21:00:05.202Z,11.35
2022-08-31T21:02:33.336Z,11.31
2022-08-31T21:05:26.834Z,11.27
2022-08-31T21:07:49.074Z,11.22
2022-08-31T21:10:15.912Z,11.18
2022-08-31T21:12:49.140Z,11.15
2022-08-31T21:15:18.175Z,11.14
2022-08-31T21:17:46.092Z,11.05
2022-08-31T21:20:13.090Z,11.02
2022-08-31T21:22:40.127Z,11.01
2022-08-31T21:25:12.645Z,10.97
2022-08-31T21:27:42.299Z,10.94
2022-08-31T21:30:11.045Z,10.91
2022-08-31T21:32:41.735Z,10.88
2022-08-31T21:35:10.563Z,10.87
2022-08-31T21:37:37.863Z,10.85
2022-08-31T21:40:06.056Z,10.86
2022-08-31T21:42:33.047Z,10.81
2022-08-31T21:45:00.051Z,10.78
2022-08-31T21:47:29.029Z,10.77
2022-08-31T21:49:55.845Z,10.78
2022-08-31T21:52:22.916Z,10.78
2022-08-31T21:54:49.815Z,10.77
2022-08-31T21:57:17.865Z,10.71
2022-08-31T21:59:44.907Z,10.69
2022-08-31T22:02:12.121Z,10.70
2022-08-31T22:04:41.787Z,10.72
2022-08-31T22:07:09.805Z,10.70
2022-08-31T22:09:37.525Z,10.68
2022-08-31T22:12:07.198Z,10.68
2022-08-31T22:14:38.106Z,10.68
2022-08-31T22:17:07.045Z,10.67
2022-08-31T22:19:38.966Z,10.67
2022-08-31T22:22:11.971Z,10.63
2022-08-31T22:24:40.419Z,10.65
2022-08-31T22:27:09.906Z,10.69
2022-08-31T22:29:37.781Z,10.61
2022-08-31T22:32:08.716Z,10.64
2022-08-31T22:34:37.331Z,10.68
2022-08-31T22:37:05.281Z,10.67
2022-08-31T22:39:32.986Z,10.68
2022-08-31T22:42:01.587Z,10.66
2022-08-31T22:44:34.233Z,10.68
2022-08-31T22:47:02.417Z,10.69
2022-08-31T22:49:29.316Z,10.70
2022-08-31T22:51:57.016Z,10.72
2022-08-31T22:54:24.740Z,10.73
2022-08-31T22:56:52.358Z,10.74
2022-08-31T22:59:26.218Z,10.74
2022-08-31T23:01:57.315Z,10.75
2022-08-31T23:04:26.384Z,10.74
2022-08-31T23:06:53.375Z,10.71
2022-08-31T23:09:22.022Z,10.70
2022-08-31T23:11:51.756Z,10.67
2022-08-31T23:14:21.312Z,10.69
2022-08-31T23:16:59.161Z,10.65
2022-08-31T23:19:40.380Z,10.66
2022-08-31T23:22:15.385Z,10.64
2022-08-31T23:24:48.637Z,10.64
2022-08-31T23:27:19.787Z,10.66
2022-08-31T23:29:50.261Z,10.69
2022-08-31T23:32:19.921Z,10.68
2022-08-31T23:34:50.655Z,10.70
2022-08-31T23:37:18.981Z,10.69
2022-08-31T23:39:46.607Z,10.67
2022-08-31T23:42:16.188Z,10.65
2022-08-31T23:44:46.500Z,10.66
2022-08-31T23:47:23.395Z,10.66
2022-08-31T23:49:51.458Z,10.65
2022-08-31T23:52:25.536Z,10.61
2022-08-31T23:54:54.742Z,10.60
2022-08-31T23:57:31.399Z,10.52
